Rechercher aéroport 
image banner adimage banner adimage banner ad
image banner ad

KNTD - Point Mugu Nas (Naval Base Ventura Co)

Situé à Oxnard, United States

ICAO - NTD, IATA -

Données fournies par Airmate  

Information générale

Coordonnées: N34°7'9" W119°7'11"
Élévation : 13 feet MSL.
Variation magnétique : 12° East
Voir autres Aéroports à California

Données opérationnelles

Special qualification required
Heure actuelle UTC:
Heure actuelle locale:
Météo
METAR: KNTD 290952Z AUTO 00000KT 10SM BKN006 15/13 A2994 RMK AO2 SLP140 T01500133 VISNO N $
TAF: TAF AMD KNTD 2907/3007 VRB06KT 9999 FEW009 QNH2989INS TEMPO 2909/2915 8000 BR OVC009 BECMG 2916/2918 25011KT 9999 NSW FEW007 FEW250 QNH2990INS FM292100 27011KT 9999 FEW009 FEW050 SCT250 QNH2984INS FM300400 VRB05KT 9999 FEW008 QNH2988INS AUTOMATED SENSOR METWATCH 2907 TIL 2913 T17/2911Z T24/2920Z AMD 0739 FS30148
Voir NOTAMs / SUP AIP / TFR affectant cet aéroport [VIEW]
Fréquences de communication: [VIEW]

Pistes:

Identifiant RWYQFULongueur (ft)Largeur (ft)SurfaceLDA (ft)
0344°11102200ASPH
21224°11102200ASPH
09105°5502200ASPH
27285°5502200ASPH

Coordonnées de l'aéroport

Adresse: Oxnard United States

Vue satellite de KNTD